Time;durP1;ratioP1;P1;durP2;ratioP2;P2;SDS_P1;SDS_P2;PMS_P1;PMS_P2;Temp;Humidity;BMP_temperature;BMP_pressure;BME280_temperature;BME280_humidity;BME280_pressure;Samples;Min_cycle;Max_cycle;Signal;HPM_P1;HPM_P2
2022/02/20 00:02:05;;;;;;;3.03;1.50;;;8.50;99.90;;;;;;5068643;28;20625;-49
2022/02/20 00:04:33;;;;;;;4.53;1.33;;;8.50;99.90;;;;;;5064377;28;20692;-51
2022/02/20 00:07:03;;;;;;;3.45;1.30;;;8.50;99.90;;;;;;5072784;28;20233;-51
2022/02/20 00:09:32;;;;;;;1.38;1.20;;;8.50;99.90;;;;;;5072546;28;20303;-52
2022/02/20 00:12:01;;;;;;;3.00;1.00;;;8.50;99.90;;;;;;5071589;28;20191;-52
2022/02/20 00:14:29;;;;;;;3.80;1.75;;;8.50;99.90;;;;;;5071259;28;20539;-50
2022/02/20 00:16:57;;;;;;;2.90;1.38;;;8.50;99.90;;;;;;5071572;28;20208;-52
2022/02/20 00:19:25;;;;;;;1.67;0.98;;;8.50;99.90;;;;;;5070283;28;20261;-51
2022/02/20 00:21:53;;;;;;;2.40;1.55;;;8.50;99.90;;;;;;5072881;28;20213;-51
2022/02/20 00:24:21;;;;;;;1.60;1.48;;;8.50;99.90;;;;;;5074108;28;20226;-52
2022/02/20 00:26:51;;;;;;;1.90;0.90;;;8.50;99.90;;;;;;5072014;28;20271;-51
2022/02/20 00:29:20;;;;;;;2.28;1.13;;;8.50;99.90;;;;;;5065005;28;20230;-50
2022/02/20 00:31:48;;;;;;;5.28;1.20;;;8.50;99.90;;;;;;5070467;28;20214;-53
2022/02/20 00:34:16;;;;;;;7.30;1.85;;;8.50;99.90;;;;;;5067690;28;20272;-52
2022/02/20 00:36:45;;;;;;;2.45;1.42;;;8.50;99.90;;;;;;5072092;28;20589;-50
2022/02/20 00:39:14;;;;;;;1.70;1.60;;;8.50;99.90;;;;;;5055432;28;20649;-49
2022/02/20 00:41:42;;;;;;;5.05;1.80;;;8.50;99.90;;;;;;5069644;28;20201;-51
2022/02/20 00:44:12;;;;;;;5.50;1.50;;;8.50;99.90;;;;;;5054577;28;20213;-52
2022/02/20 00:46:40;;;;;;;2.97;1.70;;;8.50;99.90;;;;;;5068522;28;20223;-50
2022/02/20 00:49:08;;;;;;;2.72;1.48;;;8.50;99.90;;;;;;5070435;28;20245;-50
2022/02/20 00:51:38;;;;;;;4.10;1.37;;;8.50;99.90;;;;;;5055226;28;20674;-52
2022/02/20 00:54:08;;;;;;;4.18;1.65;;;8.50;99.90;;;;;;5053802;28;20478;-53
2022/02/20 00:56:36;;;;;;;3.00;1.35;;;8.50;99.90;;;;;;5054785;28;20238;-52
2022/02/20 00:59:04;;;;;;;3.75;1.70;;;8.50;99.90;;;;;;5051082;28;20230;-50
2022/02/20 01:01:34;;;;;;;3.30;1.35;;;8.50;99.90;;;;;;5052133;28;20303;-52
2022/02/20 01:04:02;;;;;;;5.13;1.75;;;8.50;99.90;;;;;;5050625;28;20225;-51
2022/02/20 01:06:31;;;;;;;5.63;1.63;;;8.50;99.90;;;;;;5034455;28;20199;-50
2022/02/20 01:08:59;;;;;;;2.70;1.42;;;8.50;99.90;;;;;;5050949;28;20265;-49
2022/02/20 01:11:27;;;;;;;1.90;1.10;;;8.50;99.90;;;;;;5052158;28;20357;-51
2022/02/20 01:13:55;;;;;;;3.15;1.75;;;8.50;99.90;;;;;;5050657;28;20309;-53
2022/02/20 01:16:24;;;;;;;4.45;1.48;;;8.50;99.90;;;;;;5033793;28;20206;-52
2022/02/20 01:18:54;;;;;;;5.05;1.65;;;8.50;99.90;;;;;;5050810;28;20224;-51
2022/02/20 01:21:22;;;;;;;3.60;1.58;;;8.50;99.90;;;;;;5051861;28;20211;-51
2022/02/20 01:23:50;;;;;;;4.05;1.73;;;8.50;99.90;;;;;;5032916;28;20234;-52
2022/02/20 01:26:19;;;;;;;2.53;1.55;;;8.50;99.90;;;;;;5033625;28;20544;-51
2022/02/20 01:28:47;;;;;;;1.52;1.20;;;8.50;99.90;;;;;;5050694;28;20222;-52
2022/02/20 01:31:15;;;;;;;4.90;1.30;;;8.50;99.90;;;;;;5050522;28;20226;-50
2022/02/20 01:33:43;;;;;;;1.88;1.25;;;8.50;99.90;;;;;;5051030;28;20222;-52
2022/02/20 01:36:13;;;;;;;2.95;1.38;;;8.50;99.90;;;;;;5048969;28;20235;-51
2022/02/20 01:38:42;;;;;;;4.13;1.67;;;8.50;99.90;;;;;;5052983;28;20242;-52
2022/02/20 01:41:12;;;;;;;3.15;1.30;;;8.50;99.90;;;;;;5053836;28;20842;-50
2022/02/20 01:43:40;;;;;;;4.75;1.35;;;8.50;99.90;;;;;;5068870;28;20222;-51
2022/02/20 01:46:08;;;;;;;4.80;1.40;;;8.50;99.90;;;;;;5070276;28;20181;-53
2022/02/20 01:48:36;;;;;;;3.50;1.30;;;8.50;99.90;;;;;;5052068;28;20228;-52
2022/02/20 01:51:06;;;;;;;3.60;1.40;;;8.50;99.90;;;;;;5032673;28;20227;-52
2022/02/20 01:53:37;;;;;;;2.65;1.33;;;8.50;99.90;;;;;;5034959;28;20228;-52
2022/02/20 01:56:06;;;;;;;3.38;1.30;;;8.50;99.90;;;;;;5051742;28;20195;-52
2022/02/20 01:58:54;;;;;;;4.30;1.67;;;8.50;99.90;;;;;;5018617;28;20227;-50
2022/02/20 02:01:41;;;;;;;1.80;1.40;;;8.50;99.90;;;;;;5051279;28;20224;-52
2022/02/20 02:04:18;;;;;;;2.80;1.20;;;8.50;99.90;;;;;;5047143;28;20827;-51
2022/02/20 02:06:54;;;;;;;4.45;1.73;;;8.40;99.90;;;;;;5049883;28;20473;-50
2022/02/20 02:09:50;;;;;;;5.18;1.52;;;8.40;99.90;;;;;;5046202;28;20224;-49
2022/02/20 02:12:47;;;;;;;2.95;1.50;;;8.50;99.90;;;;;;5041154;28;20199;-51
2022/02/20 02:15:48;;;;;;;2.10;1.20;;;8.40;99.90;;;;;;5045785;28;20219;-51
2022/02/20 02:18:36;;;;;;;2.60;1.17;;;8.50;99.90;;;;;;5070440;28;20235;-53
2022/02/20 02:21:18;;;;;;;1.90;1.40;;;8.40;99.90;;;;;;5032733;28;20245;-52
2022/02/20 02:23:54;;;;;;;2.78;1.27;;;8.40;99.90;;;;;;5052354;28;20470;-53
2022/02/20 02:26:41;;;;;;;2.65;1.50;;;8.40;99.90;;;;;;5070612;28;20209;-52
2022/02/20 02:29:20;;;;;;;4.18;1.45;;;8.40;99.90;;;;;;5031618;28;20236;-51
2022/02/20 02:31:48;;;;;;;1.30;1.17;;;8.40;99.90;;;;;;5050267;28;20226;-51
2022/02/20 02:34:16;;;;;;;2.83;1.42;;;8.40;99.90;;;;;;5031165;28;20218;-51
2022/02/20 02:36:49;;;;;;;3.20;1.48;;;8.40;99.90;;;;;;5032053;28;20201;-50
2022/02/20 02:39:19;;;;;;;1.95;1.25;;;8.40;99.90;;;;;;5050182;28;20276;-52
2022/02/20 02:41:47;;;;;;;2.88;1.35;;;8.40;99.90;;;;;;5052275;28;20242;-52
2022/02/20 02:44:16;;;;;;;2.83;1.25;;;8.40;99.90;;;;;;5039612;28;20544;-52
2022/02/20 02:46:44;;;;;;;2.60;1.50;;;8.40;99.90;;;;;;5032240;28;20200;-50
2022/02/20 02:49:12;;;;;;;2.63;1.00;;;8.40;99.90;;;;;;5033307;28;20474;-52
2022/02/20 02:51:41;;;;;;;1.20;0.90;;;8.40;99.90;;;;;;5052403;28;20264;-50
2022/02/20 02:54:12;;;;;;;5.18;1.10;;;8.40;99.90;;;;;;5051391;28;20253;-51
2022/02/20 02:56:46;;;;;;;1.60;1.20;;;8.40;99.90;;;;;;5052291;28;20197;-52
2022/02/20 02:59:15;;;;;;;4.10;1.33;;;8.40;99.90;;;;;;5043028;28;20231;-52
2022/02/20 03:01:46;;;;;;;1.45;1.05;;;8.40;99.90;;;;;;5102919;22;20708;-49
2022/02/20 03:04:15;;;;;;;2.33;1.38;;;8.40;99.90;;;;;;5011135;28;20255;-49
2022/02/20 03:06:44;;;;;;;1.80;1.00;;;8.40;99.90;;;;;;5012251;28;20667;-49
2022/02/20 03:09:13;;;;;;;2.65;1.20;;;8.40;99.90;;;;;;5011419;28;20771;-49
2022/02/20 03:11:42;;;;;;;3.20;1.30;;;8.40;99.90;;;;;;5025729;28;20648;-49
2022/02/20 03:14:20;;;;;;;5.45;1.88;;;8.40;99.90;;;;;;5007232;28;20577;-50
2022/02/20 03:16:48;;;;;;;2.53;1.50;;;8.40;99.90;;;;;;5009115;28;20662;-50
2022/02/20 03:19:16;;;;;;;2.17;1.20;;;8.40;99.90;;;;;;5012053;28;20215;-49
2022/02/20 03:21:45;;;;;;;3.00;1.42;;;8.40;99.90;;;;;;5029927;28;20679;-49
2022/02/20 03:24:18;;;;;;;5.45;1.60;;;8.40;99.90;;;;;;5027395;28;20223;-49
2022/02/20 03:26:48;;;;;;;2.90;1.23;;;8.40;99.90;;;;;;5023491;28;20196;-49
2022/02/20 03:29:22;;;;;;;2.97;1.10;;;8.40;99.90;;;;;;5008000;28;20472;-50
2022/02/20 03:31:50;;;;;;;1.55;1.00;;;8.40;99.90;;;;;;4992541;28;20221;-49
2022/02/20 03:34:18;;;;;;;1.52;1.35;;;8.40;99.90;;;;;;5006764;28;20699;-50
2022/02/20 03:36:51;;;;;;;3.20;1.02;;;8.40;99.90;;;;;;5008710;28;20214;-49
2022/02/20 03:39:30;;;;;;;2.28;1.25;;;8.40;99.90;;;;;;4996075;28;20241;-50
2022/02/20 03:41:58;;;;;;;1.90;0.90;;;8.40;99.90;;;;;;5028966;28;20702;-49
2022/02/20 03:44:50;;;;;;;2.38;1.30;;;8.40;99.90;;;;;;5027421;28;20225;-49
2022/02/20 03:47:19;;;;;;;2.03;1.20;;;8.30;99.90;;;;;;5028320;28;20664;-50
2022/02/20 03:49:54;;;;;;;2.40;1.23;;;8.30;99.90;;;;;;5026536;28;20221;-49
2022/02/20 03:52:40;;;;;;;1.75;1.10;;;8.30;99.90;;;;;;5028220;28;20195;-50
2022/02/20 03:55:16;;;;;;;2.55;0.80;;;8.40;99.90;;;;;;5027301;28;20228;-50
2022/02/20 03:57:47;;;;;;;2.10;0.82;;;8.30;99.90;;;;;;5026047;28;20275;-49
2022/02/20 04:00:20;;;;;;;2.63;1.50;;;8.30;99.90;;;;;;5016343;28;20265;-49
2022/02/20 04:03:08;;;;;;;2.30;1.63;;;8.30;99.90;;;;;;5011205;28;20200;-50
2022/02/20 04:05:38;;;;;;;4.57;1.45;;;8.30;99.90;;;;;;5013773;28;20275;-49
2022/02/20 04:08:08;;;;;;;3.97;1.67;;;8.30;99.90;;;;;;5028381;28;20196;-50
2022/02/20 04:10:36;;;;;;;1.80;0.70;;;8.40;99.90;;;;;;5028122;28;20591;-50
2022/02/20 04:13:08;;;;;;;2.80;1.35;;;8.30;99.90;;;;;;5027052;28;20197;-50
2022/02/20 04:15:50;;;;;;;3.63;1.67;;;8.30;99.90;;;;;;5026919;28;20599;-50
2022/02/20 04:18:26;;;;;;;2.00;1.55;;;8.30;99.90;;;;;;5026809;28;20666;-49
2022/02/20 04:21:09;;;;;;;2.42;1.40;;;8.30;99.90;;;;;;5045821;28;20225;-51
2022/02/20 04:23:42;;;;;;;3.33;1.25;;;8.30;99.90;;;;;;5022724;28;20364;-49
2022/02/20 04:26:15;;;;;;;6.38;1.70;;;8.30;99.90;;;;;;5043945;28;20326;-50
2022/02/20 04:28:44;;;;;;;3.50;1.67;;;8.30;99.90;;;;;;5027126;28;20311;-50
2022/02/20 04:31:13;;;;;;;1.83;1.30;;;8.30;99.90;;;;;;5027980;28;20224;-49
2022/02/20 04:33:42;;;;;;;3.83;1.38;;;8.30;99.90;;;;;;5027239;28;20218;-49
2022/02/20 04:36:11;;;;;;;3.08;1.40;;;8.30;99.90;;;;;;5032196;28;20280;-49
2022/02/20 04:38:42;;;;;;;3.42;1.05;;;8.30;99.90;;;;;;5027211;28;20276;-50
2022/02/20 04:41:11;;;;;;;2.05;1.42;;;8.30;99.90;;;;;;5010246;28;20217;-50
2022/02/20 04:43:41;;;;;;;4.05;1.80;;;8.30;99.90;;;;;;5009893;28;20227;-49
2022/02/20 04:46:11;;;;;;;5.18;1.30;;;8.30;99.90;;;;;;5027519;28;20200;-49
2022/02/20 04:48:41;;;;;;;2.80;1.80;;;8.30;99.90;;;;;;5026857;28;20762;-50
2022/02/20 04:51:24;;;;;;;4.13;1.13;;;8.30;99.90;;;;;;5029713;28;20225;-51
2022/02/20 04:53:53;;;;;;;5.25;1.23;;;8.30;99.90;;;;;;5030976;28;20585;-49
2022/02/20 04:56:22;;;;;;;6.22;2.00;;;8.30;99.90;;;;;;5014587;28;20231;-50
2022/02/20 04:58:50;;;;;;;2.58;1.45;;;8.30;99.90;;;;;;5028777;28;20221;-50
2022/02/20 05:01:32;;;;;;;1.80;1.20;;;8.30;99.90;;;;;;5014581;28;20224;-51
2022/02/20 05:04:21;;;;;;;3.65;1.40;;;8.30;99.90;;;;;;5030856;28;20417;-50
2022/02/20 05:06:53;;;;;;;4.93;1.50;;;8.30;99.90;;;;;;5015054;28;20683;-49
2022/02/20 05:09:28;;;;;;;5.30;1.25;;;8.30;99.90;;;;;;5030404;28;20595;-50
2022/02/20 05:12:02;;;;;;;2.90;1.20;;;8.30;99.90;;;;;;5030356;28;20205;-50
2022/02/20 05:14:30;;;;;;;3.30;1.00;;;8.30;99.90;;;;;;5030350;28;20227;-50
2022/02/20 05:17:09;;;;;;;2.70;1.60;;;8.30;99.90;;;;;;5031155;28;20191;-49
2022/02/20 05:19:49;;;;;;;2.30;1.10;;;8.30;99.90;;;;;;5037018;28;20270;-49
2022/02/20 05:22:17;;;;;;;3.92;1.20;;;8.30;99.90;;;;;;5025655;28;20668;-49
2022/02/20 05:24:52;;;;;;;6.15;1.17;;;8.30;99.90;;;;;;5029079;28;20222;-50
2022/02/20 05:27:20;;;;;;;2.22;1.27;;;8.30;99.90;;;;;;5030630;28;20366;-50
2022/02/20 05:29:51;;;;;;;3.45;0.95;;;8.30;99.90;;;;;;5012846;28;20720;-49
2022/02/20 05:32:24;;;;;;;2.20;1.00;;;8.30;99.90;;;;;;5013770;28;20200;-49
2022/02/20 05:35:20;;;;;;;1.85;1.00;;;8.30;99.90;;;;;;5027849;28;20345;-49
2022/02/20 05:37:50;;;;;;;4.82;1.48;;;8.30;99.90;;;;;;5030626;28;20400;-50
2022/02/20 05:40:23;;;;;;;5.97;1.90;;;8.30;99.90;;;;;;5030226;28;20241;-49
2022/02/20 05:43:00;;;;;;;5.22;1.98;;;8.20;99.90;;;;;;5029620;28;20183;-50
2022/02/20 05:45:31;;;;;;;3.65;1.50;;;8.20;99.90;;;;;;5029438;28;20226;-49
2022/02/20 05:48:07;;;;;;;2.00;1.60;;;8.20;99.90;;;;;;5030452;28;20190;-49
2022/02/20 05:50:53;;;;;;;2.97;1.27;;;8.20;99.90;;;;;;5045574;28;20222;-48
2022/02/20 05:53:21;;;;;;;2.03;1.38;;;8.20;99.90;;;;;;5049796;28;20192;-49
2022/02/20 05:55:49;;;;;;;5.13;1.70;;;8.20;99.90;;;;;;5049758;28;20190;-49
2022/02/20 05:58:18;;;;;;;4.75;2.05;;;8.20;99.90;;;;;;5031654;28;20212;-49
2022/02/20 06:00:55;;;;;;;1.80;1.45;;;8.20;99.90;;;;;;5050325;28;20213;-49
2022/02/20 06:03:23;;;;;;;3.72;1.83;;;8.20;99.90;;;;;;5031977;28;20286;-49
2022/02/20 06:06:16;;;;;;;4.55;2.00;;;8.20;99.90;;;;;;5030652;28;20203;-49
2022/02/20 06:08:57;;;;;;;4.30;1.75;;;8.20;99.90;;;;;;5029470;28;20251;-50
2022/02/20 06:11:44;;;;;;;2.00;1.20;;;8.20;99.90;;;;;;5029923;28;20229;-50
2022/02/20 06:14:31;;;;;;;5.85;1.40;;;8.20;99.90;;;;;;5038413;28;20226;-49
2022/02/20 06:17:07;;;;;;;4.00;1.25;;;8.20;99.90;;;;;;5029882;28;20188;-49
2022/02/20 06:19:46;;;;;;;5.07;1.30;;;8.20;99.90;;;;;;5029421;28;20218;-49
2022/02/20 06:22:41;;;;;;;3.53;1.42;;;8.20;99.90;;;;;;5022438;28;20209;-49
2022/02/20 06:25:30;;;;;;;4.40;1.45;;;8.20;99.90;;;;;;4988598;28;20229;-50
2022/02/20 06:28:07;;;;;;;5.53;1.58;;;8.20;99.90;;;;;;5006188;28;20591;-49
2022/02/20 06:30:35;;;;;;;5.07;1.80;;;8.20;99.90;;;;;;5037631;28;20223;-49
2022/02/20 06:33:04;;;;;;;2.22;1.67;;;8.20;99.90;;;;;;5012478;28;20205;-49
2022/02/20 06:35:36;;;;;;;3.38;1.60;;;8.20;99.90;;;;;;5030161;28;20235;-48
2022/02/20 06:38:07;;;;;;;4.55;1.25;;;8.20;99.90;;;;;;5012652;28;20680;-50
2022/02/20 06:40:36;;;;;;;3.15;1.60;;;8.20;99.90;;;;;;5029575;28;20644;-49
2022/02/20 06:43:05;;;;;;;3.13;1.42;;;8.20;99.90;;;;;;5011383;28;20728;-49
2022/02/20 06:45:37;;;;;;;2.33;1.10;;;8.20;99.90;;;;;;5026994;28;20316;-49
2022/02/20 06:48:16;;;;;;;6.18;1.35;;;8.20;99.90;;;;;;5029822;28;20195;-50
2022/02/20 06:51:03;;;;;;;2.78;1.60;;;8.20;99.90;;;;;;5026695;28;20235;-50
2022/02/20 06:54:08;;;;;;;7.65;1.90;;;8.20;99.90;;;;;;5026864;28;20226;-50
2022/02/20 06:57:02;;;;;;;2.70;1.60;;;8.20;99.90;;;;;;5012687;28;20682;-49
2022/02/20 06:59:30;;;;;;;2.80;1.35;;;8.20;99.90;;;;;;5028583;28;20279;-50
2022/02/20 07:01:58;;;;;;;2.67;1.50;;;8.20;99.90;;;;;;5029982;28;20696;-50
2022/02/20 07:04:28;;;;;;;2.65;1.42;;;8.20;99.90;;;;;;5033419;28;20303;-50
2022/02/20 07:06:56;;;;;;;3.50;1.35;;;8.20;99.90;;;;;;5048515;28;20190;-49
2022/02/20 07:09:26;;;;;;;6.00;1.40;;;8.20;99.90;;;;;;5029737;28;20651;-50
2022/02/20 07:11:54;;;;;;;1.60;1.15;;;8.20;99.90;;;;;;5029966;28;20320;-49
2022/02/20 07:14:22;;;;;;;4.22;1.33;;;8.20;99.90;;;;;;5026521;28;20325;-49
2022/02/20 07:16:51;;;;;;;3.88;1.60;;;8.20;99.90;;;;;;5029678;28;20649;-50
2022/02/20 07:19:19;;;;;;;2.22;1.20;;;8.20;99.90;;;;;;5028009;28;20213;-50
2022/02/20 07:21:47;;;;;;;1.88;1.40;;;8.20;99.90;;;;;;5029908;28;20213;-50
2022/02/20 07:24:15;;;;;;;3.17;1.52;;;8.20;99.90;;;;;;5028561;28;20230;-50
2022/02/20 07:26:44;;;;;;;2.30;1.23;;;8.20;99.90;;;;;;5028959;28;20621;-50
2022/02/20 07:29:13;;;;;;;1.85;1.23;;;8.20;99.90;;;;;;5036253;28;20221;-50
2022/02/20 07:31:41;;;;;;;3.75;1.98;;;8.20;99.90;;;;;;5050153;28;20216;-50
2022/02/20 07:34:10;;;;;;;2.58;0.98;;;8.20;99.90;;;;;;5033831;28;20213;-50
2022/02/20 07:36:41;;;;;;;2.45;1.30;;;8.20;99.90;;;;;;5029623;28;20220;-49
2022/02/20 07:39:10;;;;;;;2.45;1.10;;;8.20;99.90;;;;;;5029338;28;20230;-49
2022/02/20 07:41:40;;;;;;;2.05;1.40;;;8.20;99.90;;;;;;5030062;28;20214;-49
2022/02/20 07:44:15;;;;;;;2.75;1.40;;;8.10;99.90;;;;;;5027302;28;20218;-49
2022/02/20 07:46:44;;;;;;;2.35;1.58;;;8.20;99.90;;;;;;5029840;28;20286;-50
2022/02/20 07:49:13;;;;;;;5.95;1.13;;;8.20;99.90;;;;;;5027380;28;20224;-49
2022/02/20 07:51:43;;;;;;;3.08;1.52;;;8.10;99.90;;;;;;5025448;28;20634;-50
2022/02/20 07:54:12;;;;;;;2.80;1.27;;;8.20;99.90;;;;;;5025802;28;20411;-49
2022/02/20 07:56:41;;;;;;;2.05;1.50;;;8.20;99.90;;;;;;5028882;28;20219;-49
2022/02/20 07:59:09;;;;;;;1.67;1.13;;;8.10;99.90;;;;;;5028135;28;20248;-49
2022/02/20 08:01:43;;;;;;;2.38;1.05;;;8.10;99.90;;;;;;5028473;28;20214;-49
2022/02/20 08:04:13;;;;;;;3.53;1.65;;;8.10;99.90;;;;;;5030245;28;20209;-49
2022/02/20 08:06:41;;;;;;;2.90;0.95;;;8.10;99.90;;;;;;5036366;28;20202;-50
2022/02/20 08:09:10;;;;;;;1.55;0.85;;;8.10;99.90;;;;;;5026706;28;20620;-49
2022/02/20 08:11:38;;;;;;;2.90;1.75;;;8.10;99.90;;;;;;5029010;28;20806;-50
2022/02/20 08:14:08;;;;;;;2.95;1.27;;;8.10;99.90;;;;;;5026737;28;20226;-49
2022/02/20 08:16:37;;;;;;;2.80;1.65;;;8.10;99.90;;;;;;5012122;28;20214;-49
2022/02/20 08:19:07;;;;;;;4.72;1.17;;;8.10;99.90;;;;;;5027603;28;20269;-49
2022/02/20 08:21:39;;;;;;;0.98;0.80;;;8.10;99.90;;;;;;5021095;28;20209;-50
2022/02/20 08:24:10;;;;;;;1.83;1.30;;;8.10;99.90;;;;;;5023264;28;20241;-50
2022/02/20 08:26:40;;;;;;;1.52;1.13;;;8.10;99.90;;;;;;5030864;28;20202;-49
2022/02/20 08:29:12;;;;;;;3.00;1.25;;;8.10;99.90;;;;;;5026664;28;20226;-49
2022/02/20 08:31:41;;;;;;;0.80;0.73;;;8.10;99.90;;;;;;5022452;28;20261;-50
2022/02/20 08:34:12;;;;;;;0.93;0.82;;;8.10;99.90;;;;;;5033334;28;20222;-49
2022/02/20 08:36:45;;;;;;;1.60;0.75;;;8.10;99.90;;;;;;5024097;28;20203;-49
2022/02/20 08:39:14;;;;;;;1.27;1.10;;;8.10;99.90;;;;;;5032884;28;20216;-49
2022/02/20 08:41:49;;;;;;;1.35;1.10;;;8.10;99.90;;;;;;5033250;28;20219;-50
2022/02/20 08:44:20;;;;;;;0.68;0.52;;;8.10;99.90;;;;;;5031697;28;20213;-49
2022/02/20 08:46:51;;;;;;;1.27;1.00;;;8.10;99.90;;;;;;5032921;28;20205;-49
2022/02/20 08:49:22;;;;;;;1.35;0.95;;;8.10;99.90;;;;;;5029834;28;20215;-49
2022/02/20 08:51:52;;;;;;;1.67;0.70;;;8.10;99.90;;;;;;5032755;28;20218;-50
2022/02/20 08:54:21;;;;;;;1.05;0.63;;;8.10;99.90;;;;;;5032267;28;20258;-49
2022/02/20 08:56:50;;;;;;;2.15;0.90;;;8.10;99.90;;;;;;5031938;28;20203;-49
2022/02/20 08:59:22;;;;;;;4.05;1.30;;;8.10;99.90;;;;;;5023101;28;20227;-49
2022/02/20 09:01:56;;;;;;;2.53;1.42;;;8.10;99.90;;;;;;5032223;28;20624;-48
2022/02/20 09:04:28;;;;;;;1.42;0.95;;;8.10;99.90;;;;;;5031259;28;20233;-49
2022/02/20 09:06:57;;;;;;;1.10;0.70;;;8.10;99.90;;;;;;5032374;28;20247;-49
2022/02/20 09:09:27;;;;;;;1.17;0.98;;;8.10;99.90;;;;;;5031814;28;20232;-50
2022/02/20 09:11:59;;;;;;;1.65;0.95;;;8.10;99.90;;;;;;5032283;28;20210;-50
2022/02/20 09:14:30;;;;;;;1.10;0.60;;;8.10;99.90;;;;;;5030400;28;20768;-49
2022/02/20 09:17:01;;;;;;;0.70;0.68;;;8.10;99.90;;;;;;5032194;28;20705;-49
2022/02/20 09:19:36;;;;;;;1.95;0.93;;;8.10;99.90;;;;;;5031065;28;20704;-49
2022/02/20 09:22:07;;;;;;;0.88;0.70;;;8.10;99.90;;;;;;5032006;28;20185;-48
2022/02/20 09:24:36;;;;;;;3.13;1.10;;;8.10;99.90;;;;;;5029017;28;20234;-49
2022/02/20 09:27:05;;;;;;;2.00;0.93;;;8.10;99.90;;;;;;5035637;28;20191;-49
2022/02/20 09:29:35;;;;;;;1.20;0.80;;;8.20;99.90;;;;;;5049726;28;20635;-49
2022/02/20 09:32:09;;;;;;;1.10;0.88;;;8.10;99.90;;;;;;5032203;28;20205;-49
2022/02/20 09:34:47;;;;;;;1.65;0.70;;;8.10;99.90;;;;;;5029457;28;20224;-49
2022/02/20 09:37:23;;;;;;;1.77;1.40;;;8.10;99.90;;;;;;5030875;28;20204;-50
2022/02/20 09:39:53;;;;;;;1.27;0.80;;;8.10;99.90;;;;;;5007507;28;20237;-49
2022/02/20 09:42:23;;;;;;;1.67;1.20;;;8.10;99.90;;;;;;5029024;28;20200;-50
2022/02/20 09:44:59;;;;;;;3.55;0.98;;;8.10;99.90;;;;;;5033636;28;20242;-49
2022/02/20 09:47:39;;;;;;;0.70;0.60;;;8.10;99.90;;;;;;5032115;28;20553;-49
2022/02/20 09:50:20;;;;;;;1.13;0.68;;;8.10;99.90;;;;;;5031153;28;20228;-49
2022/02/20 09:52:50;;;;;;;1.30;0.80;;;8.20;99.90;;;;;;5031745;28;20298;-50
2022/02/20 09:55:20;;;;;;;2.65;0.90;;;8.10;99.90;;;;;;5030493;28;20225;-50
2022/02/20 09:57:54;;;;;;;0.70;0.70;;;8.10;99.90;;;;;;5030980;28;20201;-49
2022/02/20 10:00:24;;;;;;;0.98;0.70;;;8.20;99.90;;;;;;5030373;28;20230;-50
2022/02/20 10:03:04;;;;;;;2.08;0.90;;;8.10;99.90;;;;;;5031357;28;20225;-50
2022/02/20 10:05:52;;;;;;;2.05;1.00;;;8.10;99.90;;;;;;5024610;28;20231;-48
2022/02/20 10:08:22;;;;;;;0.93;0.70;;;8.20;99.90;;;;;;5031453;28;20609;-49
2022/02/20 10:10:54;;;;;;;1.50;0.60;;;8.10;99.90;;;;;;5032003;28;20295;-49
2022/02/20 10:13:27;;;;;;;1.92;0.65;;;8.10;99.90;;;;;;5036832;28;20246;-49
2022/02/20 10:15:57;;;;;;;2.72;2.47;;;8.10;99.90;;;;;;5035932;28;20227;-49
2022/02/20 10:19:05;;;;;;;2.35;0.82;;;8.10;99.90;;;;;;5029951;28;20252;-49
2022/02/20 10:21:50;;;;;;;1.67;0.90;;;8.10;99.90;;;;;;5011555;28;20717;-49
2022/02/20 10:24:31;;;;;;;0.95;0.60;;;8.10;99.90;;;;;;5024622;28;20222;-49
2022/02/20 10:27:23;;;;;;;2.35;0.80;;;8.10;99.90;;;;;;5030379;28;20244;-49
2022/02/20 10:30:20;;;;;;;0.90;0.80;;;8.20;99.90;;;;;;5028223;28;20224;-49
2022/02/20 10:33:04;;;;;;;1.02;0.75;;;8.10;99.90;;;;;;5031249;28;20251;-50
2022/02/20 10:35:35;;;;;;;2.35;0.93;;;8.20;99.90;;;;;;5032412;28;20220;-50
2022/02/20 10:38:11;;;;;;;1.15;1.05;;;8.10;99.90;;;;;;5031042;28;20224;-49
2022/02/20 10:40:43;;;;;;;1.05;0.73;;;8.10;99.90;;;;;;5027888;28;20237;-50
2022/02/20 10:43:25;;;;;;;0.60;0.50;;;8.10;99.90;;;;;;5029431;28;20272;-50
2022/02/20 10:46:10;;;;;;;1.30;0.80;;;8.20;99.90;;;;;;5011869;28;20638;-49
2022/02/20 10:48:40;;;;;;;1.88;0.80;;;8.20;99.90;;;;;;5029056;28;20220;-50
2022/02/20 10:51:10;;;;;;;1.67;0.68;;;8.20;99.90;;;;;;5029761;28;20222;-49
2022/02/20 10:53:40;;;;;;;1.13;0.60;;;8.20;99.90;;;;;;5028323;28;20227;-50
2022/02/20 10:56:09;;;;;;;1.20;0.65;;;8.20;99.90;;;;;;5029356;28;20730;-49
2022/02/20 10:58:43;;;;;;;1.02;0.85;;;8.20;99.90;;;;;;5028389;28;20223;-49
2022/02/20 11:01:21;;;;;;;1.35;0.60;;;8.20;99.90;;;;;;5028828;28;20284;-49
2022/02/20 11:03:51;;;;;;;1.65;0.60;;;8.20;99.90;;;;;;5028731;28;20288;-50
2022/02/20 11:06:19;;;;;;;0.80;0.60;;;8.20;99.90;;;;;;5023875;28;20222;-49
2022/02/20 11:08:50;;;;;;;2.10;0.57;;;8.20;99.90;;;;;;5024124;28;20601;-49
2022/02/20 11:14:15;;;;;;;2.08;0.60;;;8.20;99.90;;;;;;5002810;28;20215;-49
2022/02/20 11:16:48;;;;;;;2.05;0.70;;;8.20;99.90;;;;;;5029026;28;20202;-49
2022/02/20 11:19:21;;;;;;;1.13;0.82;;;8.20;99.90;;;;;;5026417;28;20215;-48
2022/02/20 11:21:55;;;;;;;2.20;0.70;;;8.20;99.90;;;;;;5030542;28;20571;-49
2022/02/20 11:24:29;;;;;;;2.78;1.08;;;8.20;99.90;;;;;;5029092;28;20315;-49
2022/02/20 11:27:01;;;;;;;2.10;0.80;;;8.20;99.90;;;;;;5029530;28;20194;-50
2022/02/20 11:29:33;;;;;;;1.95;0.98;;;8.20;99.90;;;;;;5029040;28;20234;-50
2022/02/20 11:32:08;;;;;;;1.73;0.82;;;8.20;99.90;;;;;;5031566;28;20195;-49
2022/02/20 11:34:43;;;;;;;2.33;0.85;;;8.20;99.90;;;;;;5033618;28;20219;-48
2022/02/20 11:37:13;;;;;;;2.28;0.75;;;8.20;99.90;;;;;;5024108;28;20190;-51
2022/02/20 11:40:04;;;;;;;2.30;0.65;;;8.20;99.90;;;;;;5022846;28;20242;-50
2022/02/20 11:43:05;;;;;;;1.55;0.60;;;8.20;99.90;;;;;;5017554;28;20196;-50
2022/02/20 11:45:37;;;;;;;2.30;0.70;;;8.20;99.90;;;;;;5030913;28;20229;-49
2022/02/20 11:48:08;;;;;;;2.45;1.10;;;8.20;99.90;;;;;;5030670;28;20186;-49
2022/02/20 11:50:43;;;;;;;1.70;0.88;;;8.20;99.90;;;;;;5029050;28;20282;-49
2022/02/20 11:53:30;;;;;;;1.33;1.00;;;8.20;99.90;;;;;;5009236;28;20682;-48
2022/02/20 11:56:14;;;;;;;2.20;0.98;;;8.20;99.90;;;;;;5029925;28;20226;-50
2022/02/20 11:58:46;;;;;;;2.78;0.70;;;8.20;99.90;;;;;;5033324;28;20229;-49
2022/02/20 12:01:17;;;;;;;2.70;0.70;;;8.20;99.90;;;;;;5030368;28;20287;-50
2022/02/20 12:04:07;;;;;;;1.13;0.80;;;8.20;99.90;;;;;;5027685;28;20213;-50
2022/02/20 12:06:39;;;;;;;1.40;0.95;;;8.20;99.90;;;;;;5028199;28;20723;-49
2022/02/20 12:09:34;;;;;;;2.13;0.90;;;8.20;99.90;;;;;;5030780;28;20249;-50
2022/02/20 12:12:34;;;;;;;1.48;0.80;;;8.20;99.90;;;;;;5023786;28;20210;-49
2022/02/20 12:15:26;;;;;;;0.90;0.70;;;8.20;99.90;;;;;;5023812;28;20219;-49
2022/02/20 12:18:01;;;;;;;1.05;0.77;;;8.20;99.90;;;;;;5025527;28;20568;-50
2022/02/20 12:20:46;;;;;;;3.10;1.10;;;8.20;99.90;;;;;;5026636;28;20228;-49
2022/02/20 12:23:27;;;;;;;1.83;0.90;;;8.20;99.90;;;;;;5027252;28;20192;-49
2022/02/20 12:26:07;;;;;;;5.28;0.93;;;8.20;99.90;;;;;;5028122;28;20296;-51
2022/02/20 12:28:44;;;;;;;1.13;0.90;;;8.20;99.90;;;;;;5031068;28;20223;-49
2022/02/20 12:31:31;;;;;;;2.78;1.00;;;8.20;99.90;;;;;;5028553;28;20267;-49
2022/02/20 12:34:02;;;;;;;3.97;1.20;;;8.20;99.90;;;;;;5008800;28;20220;-50
2022/02/20 12:36:45;;;;;;;3.60;0.93;;;8.20;99.90;;;;;;5041303;28;20198;-48
2022/02/20 12:39:15;;;;;;;1.17;0.60;;;8.20;99.90;;;;;;5025022;28;20213;-49
2022/02/20 12:41:47;;;;;;;1.08;0.98;;;8.20;99.90;;;;;;5028362;28;20843;-49
2022/02/20 12:44:18;;;;;;;2.55;0.98;;;8.20;99.90;;;;;;5030875;28;20240;-49
2022/02/20 12:46:50;;;;;;;2.00;1.00;;;8.20;99.90;;;;;;5034521;28;20199;-50
2022/02/20 12:49:19;;;;;;;4.93;1.00;;;8.20;99.90;;;;;;5026145;28;20713;-49
2022/02/20 12:51:49;;;;;;;1.85;0.90;;;8.20;99.90;;;;;;5026736;28;20311;-49
2022/02/20 12:54:29;;;;;;;3.97;1.30;;;8.20;99.90;;;;;;5024990;28;20224;-49
2022/02/20 12:57:04;;;;;;;1.90;1.15;;;8.20;99.90;;;;;;5028676;28;20727;-49
2022/02/20 12:59:34;;;;;;;1.17;0.80;;;8.30;99.90;;;;;;5025579;28;20282;-49
2022/02/20 13:02:07;;;;;;;5.85;3.15;;;8.20;99.90;;;;;;5028605;28;20203;-50
2022/02/20 13:04:40;;;;;;;3.75;0.90;;;8.30;99.90;;;;;;5033205;28;20231;-50
2022/02/20 13:07:11;;;;;;;5.93;1.30;;;8.30;99.90;;;;;;5036710;28;20213;-49
2022/02/20 13:10:03;;;;;;;6.55;1.10;;;8.30;99.90;;;;;;5026115;28;20252;-49
2022/02/20 13:12:32;;;;;;;1.10;0.80;;;8.30;99.90;;;;;;5029697;28;20280;-50
2022/02/20 13:15:06;;;;;;;1.70;1.15;;;8.30;99.90;;;;;;5030833;28;20314;-49
2022/02/20 13:17:49;;;;;;;2.35;0.82;;;8.30;99.90;;;;;;5031711;28;20669;-49
2022/02/20 13:20:33;;;;;;;3.65;1.00;;;8.30;99.90;;;;;;5024238;28;20219;-49
2022/02/20 13:23:23;;;;;;;1.30;0.80;;;8.30;99.90;;;;;;5029181;28;20199;-48
2022/02/20 13:25:55;;;;;;;2.75;1.20;;;8.30;99.90;;;;;;5030967;28;20244;-50
2022/02/20 13:28:26;;;;;;;3.08;1.60;;;8.30;99.90;;;;;;5029381;28;20200;-55
2022/02/20 13:31:01;;;;;;;4.38;1.35;;;8.30;99.90;;;;;;5031631;28;20209;-48
2022/02/20 13:33:39;;;;;;;3.65;1.15;;;8.30;99.90;;;;;;5030152;28;20329;-49
2022/02/20 13:36:09;;;;;;;4.72;1.98;;;8.30;99.90;;;;;;5027771;28;20541;-50